Data for 10/26/2018

Time Sea-Level Adjusted Pressure Absolute Pressure Temperature Relative Humidity Dew Point   
(mb) (inHg) (mb) (inHg) (C) (F) (%) (C) (F)
00:05 1020 30.12 849 25.07 6.8 44.3 39 -6.2 20.9
00:10 1020 30.12 849 25.07 6.7 44 41 -5.6 21.9
00:15 1020 30.12 849 25.07 6 42.9 44 -5.3 22.5
00:20 1020 30.12 849 25.07 5.7 42.3 46 -5.1 22.8
00:25 1020 30.12 849 25.07 5.6 42 46 -5.2 22.7
00:30 1020 30.12 849 25.07 5.7 42.3 45 -5.3 22.5
00:35 1020 30.12 849 25.07 5.5 41.9 45 -5.4 22.2
00:40 1020 30.12 849 25.07 5 41 50 -4.6 23.7
00:45 1019 30.09 849 25.07 4.6 40.3 48 -5.5 22.1
00:50 1020 30.12 849 25.07 5.2 41.3 44 -5.9 21.3
00:55 1020 30.12 849 25.07 5.5 41.9 45 -5.5 22.1
01:00 1020 30.12 849 25.07 5.4 41.7 45 -5.6 22
01:05 1020 30.12 849 25.07 5.7 42.2 44 -5.8 21.6
01:10 1020 30.12 849 25.07 5.9 42.6 42 -5.9 21.3
01:15 1019 30.09 849 25.07 6 42.7 45 -5 23
01:20 1019 30.09 849 25.07 5.4 41.7 47 -5.1 22.8
01:25 1019 30.09 848 25.04 5.2 41.4 47 -5.2 22.6
01:30 1019 30.09 848 25.04 5.4 41.7 43 -6.2 20.8
01:35 1019 30.09 848 25.04 5.9 42.7 43 -5.8 21.6
01:40 1019 30.09 848 25.04 5.8 42.5 44 -5.4 22.2
01:45 1019 30.09 848 25.04 5.7 42.2 46 -5.1 22.9
01:50 1019 30.09 848 25.04 5.3 41.6 46 -5.3 22.4
01:55 1019 30.09 848 25.04 5.4 41.7 45 -5.7 21.8
02:00 1019 30.09 848 25.04 5.7 42.3 44 -5.6 21.9
02:05 1019 30.09 848 25.04 6.5 43.8 42 -5.3 22.4
02:10 1019 30.09 848 25.04 7.6 45.7 41 -4.9 23.2
02:15 1019 30.09 848 25.04 8.2 46.7 41 -4.3 24.2
02:20 1019 30.09 848 25.04 8.2 46.7 41 -4.2 24.5
02:25 1019 30.09 848 25.04 8.3 46.9 42 -4 24.7
02:30 1019 30.09 848 25.04 8.3 46.9 42 -3.8 25.2
02:35 1019 30.09 848 25.04 7.7 45.9 42 -4.4 24.1
02:40 1019 30.09 848 25.04 6.7 44.1 45 -4.3 24.3
02:45 1019 30.09 849 25.07 7.1 44.8 43 -4.7 23.5
02:50 1019 30.09 849 25.07 7.4 45.3 43 -4.3 24.3
02:55 1019 30.09 849 25.07 7.5 45.6 45 -3.6 25.5
03:00 1019 30.09 849 25.07 7.9 46.1 42 -4.2 24.5
03:05 1019 30.09 849 25.07 8.1 46.6 45 -3 26.7
03:10 1020 30.12 849 25.07 7.9 46.3 43 -3.9 25
03:15 1019 30.09 849 25.07 8.1 46.6 42 -4.1 24.6
03:20 1019 30.09 849 25.07 8.4 47.1 41 -4 24.8
03:25 1019 30.09 849 25.07 9 48.1 39 -4.4 24.1
03:30 1019 30.09 849 25.07 9.7 49.4 37 -4.4 24.2
03:35 1019 30.09 849 25.07 10 50 36 -4.2 24.4
03:40 1019 30.09 849 25.07 10 50.1 37 -4.1 24.6
03:45 1019 30.09 849 25.07 10 50 37 -4 24.7
03:50 1019 30.09 849 25.07 10 49.9 37 -4 24.9
03:55 1019 30.09 849 25.07 10 50 38 -3.7 25.3
04:00 1019 30.09 849 25.07 10.1 50.1 38 -3.7 25.3
04:05 1019 30.09 849 25.07 10.2 50.4 38 -3.6 25.5
04:10 1019 30.09 849 25.07 10.4 50.7 37 -3.6 25.6
04:15 1019 30.09 848 25.04 10.5 50.9 37 -3.5 25.6
04:20 1019 30.09 848 25.04 10.6 51.1 37 -3.4 25.9
04:25 1019 30.09 848 25.04 10.6 51 38 -3.3 26.1
04:30 1019 30.09 848 25.04 10.5 50.8 38 -3.1 26.3
04:35 1019 30.09 848 25.04 10.3 50.6 39 -3.1 26.4
04:40 1019 30.09 848 25.04 10.3 50.5 39 -3 26.6
04:45 1019 30.09 848 25.04 10.3 50.6 39 -3.1 26.5
04:50 1019 30.09 848 25.04 10.4 50.8 39 -2.9 26.7
04:55 1019 30.09 848 25.04 10.4 50.7 39 -2.8 26.9
05:00 1019 30.09 848 25.04 10.4 50.6 39 -2.8 26.9
05:05 1019 30.09 848 25.04 10.4 50.8 39 -2.8 26.9
05:10 1019 30.09 848 25.04 10.5 51 39 -2.7 27.2
05:15 1019 30.09 848 25.04 10.5 50.9 40 -2.6 27.4
05:20 1019 30.09 848 25.04 10.5 50.9 39 -2.7 27.1
05:25 1019 30.09 848 25.04 10.6 51 40 -2.6 27.4
05:30 1019 30.09 848 25.04 10.5 50.9 40 -2.6 27.3
05:35 1019 30.09 848 25.04 10.4 50.6 40 -2.6 27.4
05:40 1019 30.09 848 25.04 10.3 50.5 40 -2.7 27.1
05:45 1019 30.09 848 25.04 10.3 50.6 40 -2.7 27.2
05:50 1019 30.09 848 25.04 10.2 50.3 40 -2.7 27.2
05:55 1019 30.09 848 25.04 10.1 50.2 41 -2.6 27.4
06:00 1019 30.09 848 25.04 10.2 50.3 40 -2.8 26.9
06:05 1019 30.09 848 25.04 10.4 50.7 39 -3 26.5
06:10 1019 30.09 848 25.04 10.3 50.5 39 -3 26.7
06:15 1019 30.09 848 25.04 10.3 50.6 39 -3 26.7
06:20 1019 30.09 848 25.04 10.3 50.6 39 -2.8 26.9
06:25 1019 30.09 848 25.04 10.3 50.5 40 -2.8 27
06:30 1019 30.09 848 25.04 10.2 50.4 40 -2.7 27.2
06:35 1019 30.09 848 25.04 10.2 50.4 40 -2.7 27.2
06:40 1019 30.09 848 25.04 10.1 50.3 41 -2.6 27.4
06:45 1019 30.09 849 25.07 10.1 50.2 41 -2.4 27.7
06:50 1019 30.09 849 25.07 10 50 42 -2.2 28
06:55 1019 30.09 849 25.07 9.9 49.7 43 -2.1 28.1
07:00 1019 30.09 849 25.07 9.8 49.6 43 -2.1 28.3
07:05 1019 30.09 849 25.07 9.9 49.7 44 -1.9 28.6
07:10 1019 30.09 849 25.07 9.9 49.8 43 -1.9 28.5
07:15 1019 30.09 849 25.07 9.9 49.8 44 -1.8 28.8
07:20 1020 30.12 849 25.07 9.9 49.9 44 -1.7 28.9
07:25 1020 30.12 849 25.07 10.1 50.1 43 -1.9 28.5
07:30 1020 30.12 849 25.07 10.5 50.9 42 -1.7 29
07:35 1020 30.12 849 25.07 10.5 50.9 43 -1.5 29.3
07:40 1020 30.12 849 25.07 10.4 50.7 43 -1.4 29.4
07:45 1020 30.12 849 25.07 10.4 50.7 44 -1.4 29.6
07:50 1020 30.12 849 25.07 10.3 50.6 44 -1.3 29.7
07:55 1020 30.12 849 25.07 10.3 50.5 45 -1 30.2
08:00 1020 30.12 849 25.07 10.2 50.4 46 -0.8 30.6
08:05 1020 30.12 850 25.1 10.1 50.3 49 -0.2 31.7
08:10 1020 30.12 850 25.1 10.1 50.2 49 -0 32
08:15 1020 30.12 850 25.1 9.9 49.8 48 -0.6 30.9
08:20 1020 30.12 850 25.1 9.6 49.3 50 -0.3 31.5
08:25 1020 30.12 850 25.1 9.5 49.1 49 -0.5 31
08:30 1020 30.12 850 25.1 9.4 48.9 50 -0.5 31.1
08:35 1021 30.15 850 25.1 9.4 49 49 -0.6 31
08:40 1021 30.15 850 25.1 9.5 49.2 53 0.5 33
08:45 1021 30.15 850 25.1 9.5 49.2 53 0.5 32.9
08:50 1021 30.15 850 25.1 9.6 49.2 53 0.6 33
08:55 1021 30.15 850 25.1 9.7 49.4 55 1 33.9
09:00 1021 30.15 850 25.1 9.9 49.8 55 1.3 34.4
09:05 1021 30.15 850 25.1 9.9 49.8 55 1.4 34.5
09:10 1021 30.15 850 25.1 9.9 49.8 56 1.6 35
09:15 1021 30.15 850 25.1 9.9 49.8 58 2.1 35.7
09:20 1021 30.15 850 25.1 9.8 49.6 58 2 35.5
09:25 1021 30.15 850 25.1 9.7 49.5 61 2.7 36.9
09:30 1021 30.15 850 25.1 9.7 49.4 61 2.5 36.6
09:35 1021 30.15 850 25.1 9.5 49.2 60 2.2 35.9
09:40 1021 30.15 850 25.1 9.3 48.8 61 2.3 36.1
09:45 1021 30.15 850 25.1 9.3 48.8 64 2.9 37.1
09:50 1021 30.15 850 25.1 9.4 48.9 66 3.4 38.1
09:55 1021 30.15 850 25.1 9.2 48.5 69 3.9 39
10:00 1021 30.15 850 25.1 8.9 47.9 67 3.1 37.6
10:05 1021 30.15 850 25.1 9 48.2 64 2.5 36.5
10:10 1021 30.15 850 25.1 9.3 48.8 64 3 37.4
10:15 1021 30.15 850 25.1 9.5 49.1 65 3.2 37.8
10:20 1021 30.15 850 25.1 9.5 49 64 3 37.3
10:25 1021 30.15 850 25.1 9.7 49.4 61 2.5 36.6
10:30 1021 30.15 850 25.1 9.9 49.9 60 2.5 36.5
10:35 1021 30.15 850 25.1 10.1 50.2 61 2.9 37.3
10:40 1021 30.15 850 25.1 10.2 50.3 61 3 37.4
10:45 1021 30.15 850 25.1 10.2 50.3 59 2.6 36.7
10:50 1021 30.15 850 25.1 10.3 50.6 60 3 37.3
10:55 1021 30.15 850 25.1 10.5 50.9 59 2.8 37.1
11:00 1021 30.15 850 25.1 10.5 50.9 60 3 37.5
11:05 1021 30.15 850 25.1 10.5 50.9 60 3.1 37.5
11:10 1021 30.15 850 25.1 10.5 50.9 60 3.1 37.6
11:15 1021 30.15 850 25.1 10.6 51.1 59 2.9 37.3
11:20 1021 30.15 850 25.1 10.7 51.3 57 2.7 36.8
11:25 1021 30.15 850 25.1 10.8 51.5 57 2.8 37.1
11:30 1021 30.15 850 25.1 10.8 51.5 55 2.2 35.9
11:35 1021 30.15 850 25.1 10.9 51.7 58 3.1 37.5
11:40 1021 30.15 850 25.1 11 51.8 56 2.6 36.7
11:45 1021 30.15 850 25.1 11.1 52 55 2.5 36.4
11:50 1021 30.15 850 25.1 11.2 52.2 55 2.7 36.8
11:55 1021 30.15 850 25.1 11.3 52.3 53 2.1 35.8
12:00 1021 30.15 850 25.1 11.4 52.4 54 2.5 36.5
12:05 1021 30.15 850 25.1 11.7 53 53 2.4 36.4
12:10 1020 30.12 850 25.1 12 53.6 52 2.4 36.3
12:15 1020 30.12 850 25.1 12.1 53.7 52 2.6 36.7
12:20 1020 30.12 850 25.1 11.9 53.5 51 2.3 36.1
12:25 1020 30.12 849 25.07 11.9 53.4 52 2.4 36.3
12:30 1020 30.12 849 25.07 11.9 53.3 51 2 35.7
12:35 1020 30.12 849 25.07 11.8 53.3 52 2.4 36.3
12:40 1020 30.12 849 25.07 11.9 53.4 53 2.7 36.8
12:45 1020 30.12 849 25.07 12 53.6 52 2.6 36.7
12:50 1020 30.12 849 25.07 12 53.6 54 2.9 37.3
12:55 1020 30.12 849 25.07 11.8 53.3 54 2.8 37
13:00 1020 30.12 849 25.07 11.8 53.2 53 2.5 36.5
13:05 1020 30.12 849 25.07 11.9 53.4 53 2.6 36.7
13:10 1020 30.12 849 25.07 11.9 53.4 54 2.8 37.1
13:15 1020 30.12 849 25.07 11.9 53.4 54 2.9 37.2
13:20 1020 30.12 849 25.07 12.1 53.7 53 2.9 37.3
13:25 1020 30.12 849 25.07 12.2 54 53 3 37.3
13:30 1020 30.12 849 25.07 12.4 54.3 51 2.6 36.7
13:35 1020 30.12 849 25.07 12.9 55.2 51 3.1 37.5
13:40 1020 30.12 849 25.07 13.5 56.3 48 2.7 36.8
13:45 1020 30.12 849 25.07 13.8 56.9 48 3 37.5
13:50 1019 30.09 849 25.07 13.7 56.7 47 2.6 36.7
13:55 1019 30.09 849 25.07 13.9 57.1 46 2.6 36.7
14:00 1019 30.09 849 25.07 13.9 56.9 46 2.4 36.4
14:05 1019 30.09 848 25.04 13.9 56.9 47 2.7 36.8
14:10 1019 30.09 848 25.04 14 57.2 45 2.2 36
14:15 1019 30.09 848 25.04 14.1 57.4 46 2.7 36.8
14:20 1019 30.09 848 25.04 14 57.2 46 2.7 36.9
14:25 1019 30.09 848 25.04 13.8 56.8 47 2.7 36.9
14:30 1019 30.09 848 25.04 13.9 57.1 47 2.8 37.1
14:35 1019 30.09 848 25.04 13.8 56.8 47 2.8 37.1
14:40 1019 30.09 848 25.04 13.7 56.6 47 2.6 36.7
14:45 1019 30.09 848 25.04 13.9 57.1 47 3 37.5
14:50 1019 30.09 848 25.04 14.2 57.5 46 2.7 36.8
14:55 1019 30.09 848 25.04 14.3 57.7 46 3 37.3
15:00 1019 30.09 848 25.04 14.3 57.7 47 3.1 37.6
15:05 1019 30.09 848 25.04 14.2 57.6 46 3 37.4
15:10 1019 30.09 848 25.04 14.4 57.9 45 2.8 37
15:15 1019 30.09 848 25.04 14.7 58.5 44 2.8 37
15:20 1019 30.09 848 25.04 15.3 59.5 43 2.8 37
15:25 1019 30.09 848 25.04 15.9 60.7 40 2.4 36.2
15:30 1019 30.09 848 25.04 16.2 61.1 41 2.9 37.2
15:35 1019 30.09 848 25.04 15.6 60 42 2.8 37.1
15:40 1019 30.09 848 25.04 15.3 59.6 43 3 37.5
15:45 1019 30.09 848 25.04 15 59 44 2.9 37.2
15:50 1019 30.09 848 25.04 14.9 58.8 44 2.8 37
15:55 1019 30.09 848 25.04 14.8 58.7 45 3 37.3
16:00 1019 30.09 848 25.04 14.6 58.2 46 3 37.4
16:05 1019 30.09 848 25.04 14.3 57.8 46 3.1 37.5
16:10 1019 30.09 848 25.04 14.3 57.7 48 3.6 38.5
16:15 1019 30.09 848 25.04 14.2 57.5 47 3 37.4
16:20 1019 30.09 848 25.04 13.9 57 50 3.8 38.9
16:25 1019 30.09 848 25.04 13.9 57 49 3.5 38.3
16:30 1019 30.09 848 25.04 13.9 57 48 3.1 37.6
16:35 1019 30.09 848 25.04 13.9 56.9 50 3.5 38.4
16:40 1019 30.09 848 25.04 13.9 57 51 4.1 39.4
16:45 1019 30.09 848 25.04 13.9 57 50 3.6 38.5
16:50 1019 30.09 848 25.04 13.9 56.9 49 3.3 38
16:55 1019 30.09 848 25.04 13.7 56.6 50 3.5 38.3
17:00 1019 30.09 848 25.04 13.7 56.7 49 3.4 38
17:05 1019 30.09 848 25.04 13.8 56.9 51 3.9 38.9
17:10 1019 30.09 848 25.04 13.5 56.2 53 4.1 39.4
17:15 1019 30.09 848 25.04 13.4 56.1 53 4.1 39.3
17:20 1019 30.09 848 25.04 13.4 56.1 55 4.6 40.2
17:25 1019 30.09 848 25.04 13.1 55.7 57 4.8 40.7
17:30 1019 30.09 848 25.04 12.8 55.1 57 4.5 40.1
17:35 1019 30.09 848 25.04 12.8 55 57 4.6 40.2
17:40 1019 30.09 848 25.04 12.8 55 57 4.5 40.1
17:45 1019 30.09 848 25.04 12.6 54.8 59 4.9 40.9
17:50 1019 30.09 848 25.04 12.3 54.1 63 5.6 42
17:55 1019 30.09 848 25.04 11.8 53.3 67 6 42.9
18:00 1019 30.09 848 25.04 11.3 52.3 70 6 42.8
18:05 1019 30.09 848 25.04 11 51.8 70 5.7 42.3
18:10 1019 30.09 848 25.04 10.9 51.6 71 5.9 42.6
18:15 1019 30.09 848 25.04 10.9 51.5 71 5.7 42.3
18:20 1019 30.09 848 25.04 11.1 52 69 5.6 42.1
18:25 1019 30.09 848 25.04 11.2 52.1 68 5.6 42
18:30 1019 30.09 848 25.04 11.3 52.3 67 5.5 41.8
18:35 1019 30.09 848 25.04 11.4 52.5 67 5.4 41.8
18:40 1019 30.09 848 25.04 11.4 52.6 67 5.6 42.1
18:45 1019 30.09 848 25.04 11.3 52.4 66 5.3 41.6
18:50 1019 30.09 848 25.04 11.3 52.4 67 5.5 42
18:55 1019 30.09 848 25.04 11.3 52.3 66 5.1 41.2
19:00 1019 30.09 848 25.04 11.5 52.6 65 5.2 41.3
19:05 1019 30.09 848 25.04 11.6 52.8 64 5.1 41.2
19:10 1019 30.09 848 25.04 11.6 52.9 64 5 41
19:15 1018 30.06 848 25.04 11.7 53 64 5.1 41.2
19:20 1019 30.09 848 25.04 11.6 52.8 65 5.2 41.3
19:25 1019 30.09 848 25.04 11.4 52.5 65 5.2 41.4
19:30 1019 30.09 848 25.04 11.3 52.4 65 5.1 41.3
19:35 1019 30.09 848 25.04 11.4 52.5 63 4.8 40.6
19:40 1019 30.09 848 25.04 11.6 52.9 63 4.9 40.7
19:45 1018 30.06 848 25.04 11.6 52.9 62 4.6 40.4
19:50 1018 30.06 848 25.04 11.8 53.3 59 4.2 39.5
19:55 1018 30.06 848 25.04 12.3 54.1 57 4.1 39.5
20:00 1018 30.06 848 25.04 12.4 54.4 56 4 39.3
20:05 1018 30.06 848 25.04 12.5 54.4 59 4.7 40.4
20:10 1018 30.06 848 25.04 12.4 54.3 59 4.6 40.3
20:15 1018 30.06 848 25.04 12.2 54 62 5.2 41.4
20:20 1018 30.06 848 25.04 12 53.6 58 4 39.2
20:25 1018 30.06 848 25.04 12.3 54.1 57 4.1 39.4
20:30 1018 30.06 847 25.01 12.3 54.2 54 3.5 38.2
20:35 1018 30.06 847 25.01 12.5 54.5 55 3.8 38.9
20:40 1018 30.06 847 25.01 12.3 54.2 55 3.7 38.6
20:45 1018 30.06 847 25.01 12.4 54.3 52 3 37.4
20:50 1018 30.06 847 25.01 12.8 55 51 2.9 37.2
20:55 1018 30.06 847 25.01 12.9 55.3 50 2.9 37.2
21:00 1018 30.06 847 25.01 13 55.4 48 2.4 36.3
21:05 1018 30.06 847 25.01 13.5 56.3 45 2 35.6
21:10 1018 30.06 847 25.01 13.5 56.3 47 2.6 36.7
21:15 1018 30.06 847 25.01 13.3 56 47 2.3 36.1
21:20 1018 30.06 847 25.01 13.3 56 47 2.4 36.3
21:25 1018 30.06 847 25.01 13.2 55.8 48 2.5 36.5
21:30 1018 30.06 847 25.01 13.4 56 46 2.1 35.8
21:35 1018 30.06 847 25.01 13.5 56.3 47 2.4 36.2
21:40 1018 30.06 847 25.01 13.5 56.2 46 2.3 36.1
21:45 1018 30.06 847 25.01 13.4 56.1 47 2.5 36.5
21:50 1018 30.06 847 25.01 13.3 55.9 48 2.5 36.6
21:55 1017 30.03 847 25.01 13.1 55.6 49 2.6 36.7
22:00 1017 30.03 847 25.01 13 55.4 49 2.6 36.6
22:05 1017 30.03 847 25.01 12.9 55.3 49 2.6 36.7
22:10 1017 30.03 847 25.01 12.8 55.1 50 2.7 36.8
22:15 1017 30.03 847 25.01 12.7 54.9 50 2.8 37
22:20 1018 30.06 847 25.01 12.6 54.7 50 2.6 36.6
22:25 1018 30.06 847 25.01 12.6 54.7 49 2.3 36.1
22:30 1018 30.06 847 25.01 12.8 55 49 2.4 36.3
22:35 1017 30.03 847 25.01 12.9 55.2 49 2.4 36.2
22:40 1017 30.03 847 25.01 13 55.5 48 2.4 36.3
22:45 1017 30.03 846 24.98 13.1 55.6 49 2.6 36.7
22:50 1017 30.03 846 24.98 13.2 55.8 47 2.3 36.1
22:55 1017 30.03 846 24.98 13.4 56 47 2.4 36.3
23:00 1017 30.03 846 24.98 13.4 56.1 47 2.3 36.1
23:05 1017 30.03 846 24.98 13.4 56.1 47 2.5 36.5
23:10 1017 30.03 846 24.98 13.3 56 47 2.3 36.2
23:15 1017 30.03 846 24.98 13.3 55.9 48 2.5 36.5
23:20 1017 30.03 846 24.98 13.1 55.6 48 2.5 36.6
23:25 1017 30.03 846 24.98 13 55.4 49 2.5 36.6
23:30 1017 30.03 846 24.98 12.9 55.3 49 2.6 36.6
23:35 1017 30.03 846 24.98 12.8 55.1 49 2.6 36.7
23:40 1017 30.03 846 24.98 12.7 54.9 49 2.5 36.5
23:45 1016 30 846 24.98 12.9 55.2 47 2 35.7
23:50 1016 30 846 24.98 13 55.5 47 2.2 35.9
23:55 1016 30 846 24.98 13 55.4 47 2 35.7
24:00 1016 30 845 24.95 13 55.4 47 2.1 35.8